Time;durP1;ratioP1;P1;durP2;ratioP2;P2;SDS_P1;SDS_P2;PMS_P1;PMS_P2;Temp;Humidity;BMP_temperature;BMP_pressure;BME280_temperature;BME280_humidity;BME280_pressure;Samples;Min_cycle;Max_cycle;Signal;HPM_P1;HPM_P2
2021/03/29 00:00:12;;;;;;;12.90;4.00;;;9.80;80.30;;;;;;5092421;28;20075;-55
2021/03/29 00:02:38;;;;;;;13.70;3.75;;;9.80;80.30;;;;;;5092556;28;20411;-53
2021/03/29 00:05:04;;;;;;;10.20;3.55;;;9.80;80.10;;;;;;5092482;28;20032;-52
2021/03/29 00:07:32;;;;;;;11.75;3.33;;;9.90;80.30;;;;;;5092033;28;20055;-49
2021/03/29 00:10:01;;;;;;;10.60;3.63;;;9.90;80.20;;;;;;5091307;28;20507;-52
2021/03/29 00:12:27;;;;;;;11.52;3.63;;;9.90;80.10;;;;;;5092158;28;20377;-53
2021/03/29 00:14:53;;;;;;;11.15;3.67;;;9.90;80.00;;;;;;5092370;28;20044;-52
2021/03/29 00:17:20;;;;;;;14.40;3.80;;;9.90;79.90;;;;;;5090639;28;20066;-54
2021/03/29 00:19:46;;;;;;;12.82;3.97;;;10.00;80.00;;;;;;5090582;28;20085;-49
2021/03/29 00:22:12;;;;;;;11.82;3.38;;;9.90;80.10;;;;;;5091777;28;20416;-52
2021/03/29 00:24:39;;;;;;;13.23;4.07;;;9.90;79.70;;;;;;5091844;28;20044;-53
2021/03/29 00:27:06;;;;;;;12.73;4.10;;;9.90;79.70;;;;;;5091985;28;20205;-52
2021/03/29 00:29:32;;;;;;;8.52;3.20;;;9.90;79.80;;;;;;5090694;28;20123;-50
2021/03/29 00:31:59;;;;;;;11.80;3.72;;;9.90;79.90;;;;;;5091764;28;20578;-53
2021/03/29 00:34:25;;;;;;;11.25;3.80;;;9.90;80.10;;;;;;5090947;28;20395;-55
2021/03/29 00:36:53;;;;;;;9.35;3.47;;;10.00;79.90;;;;;;5091260;28;20036;-54
2021/03/29 00:39:21;;;;;;;11.95;3.75;;;9.90;80.00;;;;;;5090792;28;20074;-51
2021/03/29 00:41:48;;;;;;;11.70;3.65;;;9.90;79.90;;;;;;5091288;28;20044;-53
2021/03/29 00:44:15;;;;;;;13.45;3.70;;;10.00;80.00;;;;;;5091704;28;20063;-51
2021/03/29 00:46:41;;;;;;;15.40;3.92;;;10.00;79.80;;;;;;5091421;28;20138;-52
2021/03/29 00:49:08;;;;;;;13.63;4.50;;;9.90;79.90;;;;;;5092158;28;20093;-51
2021/03/29 00:51:35;;;;;;;9.68;4.00;;;10.00;79.70;;;;;;5091497;28;20094;-53
2021/03/29 00:54:04;;;;;;;11.38;3.75;;;10.00;79.70;;;;;;5087098;28;20043;-52
2021/03/29 00:56:31;;;;;;;10.48;3.88;;;10.00;79.60;;;;;;5090921;28;20557;-52
2021/03/29 00:58:58;;;;;;;13.25;4.05;;;10.10;79.60;;;;;;5091661;28;20458;-49
2021/03/29 01:01:34;;;;;;;10.27;3.75;;;10.10;79.50;;;;;;5091031;28;20108;-52
2021/03/29 01:04:03;;;;;;;10.18;3.90;;;10.00;79.60;;;;;;5091600;28;20083;-49
2021/03/29 01:06:32;;;;;;;12.68;3.97;;;9.90;79.70;;;;;;5090933;28;20032;-52
2021/03/29 01:09:06;;;;;;;12.40;4.30;;;9.90;79.90;;;;;;5091574;28;20047;-50
2021/03/29 01:11:35;;;;;;;12.43;4.05;;;9.90;79.80;;;;;;5090461;28;20512;-53
2021/03/29 01:14:13;;;;;;;12.93;4.25;;;9.90;79.60;;;;;;5091745;28;20040;-53
2021/03/29 01:17:30;;;;;;;9.23;3.70;;;9.90;79.60;;;;;;5088209;28;20039;-52
2021/03/29 01:20:01;;;;;;;12.68;3.90;;;9.90;79.50;;;;;;5049304;28;20040;-53
2021/03/29 01:22:49;;;;;;;12.70;3.97;;;9.90;79.70;;;;;;5086642;28;20069;-50
2021/03/29 01:25:29;;;;;;;9.10;3.60;;;9.90;79.70;;;;;;5089614;28;20136;-53
2021/03/29 01:28:06;;;;;;;10.25;4.10;;;9.90;79.70;;;;;;5089326;28;20040;-52
2021/03/29 01:30:36;;;;;;;11.73;4.07;;;9.90;79.80;;;;;;5091478;28;20409;-49
2021/03/29 01:33:02;;;;;;;11.88;4.35;;;9.80;79.90;;;;;;5090883;28;20051;-53
2021/03/29 01:35:31;;;;;;;16.45;4.93;;;9.90;79.90;;;;;;5091580;28;20097;-52
2021/03/29 01:37:59;;;;;;;12.70;4.90;;;9.90;79.90;;;;;;5090277;28;20097;-50
2021/03/29 01:40:26;;;;;;;12.13;4.70;;;9.80;79.90;;;;;;5091048;28;20044;-54
2021/03/29 01:42:54;;;;;;;12.55;5.13;;;9.80;79.90;;;;;;5090477;28;20142;-53
2021/03/29 01:45:20;;;;;;;12.13;4.82;;;9.80;79.70;;;;;;5089219;28;20028;-51
2021/03/29 01:47:47;;;;;;;12.35;5.15;;;9.80;79.90;;;;;;5090226;28;20057;-51
2021/03/29 01:50:17;;;;;;;15.05;4.80;;;9.80;79.50;;;;;;5091086;28;20050;-52
2021/03/29 01:52:43;;;;;;;13.80;4.75;;;9.80;79.60;;;;;;5090909;28;20484;-49
2021/03/29 01:55:09;;;;;;;10.80;4.60;;;9.80;79.60;;;;;;5085108;28;20137;-51
2021/03/29 01:57:35;;;;;;;13.63;5.22;;;9.80;79.50;;;;;;5089817;28;20107;-50
2021/03/29 02:00:12;;;;;;;11.63;4.63;;;9.80;79.50;;;;;;5090500;28;20120;-53
2021/03/29 02:02:40;;;;;;;16.33;6.07;;;9.80;79.20;;;;;;5090059;28;20047;-56
2021/03/29 02:05:11;;;;;;;15.93;5.28;;;9.80;79.40;;;;;;5090081;28;20515;-52
2021/03/29 02:07:42;;;;;;;12.43;4.80;;;9.70;79.20;;;;;;5089203;28;20032;-52
2021/03/29 02:10:19;;;;;;;11.95;5.10;;;9.70;79.30;;;;;;5089961;28;20052;-51
2021/03/29 02:12:45;;;;;;;16.67;5.18;;;9.80;79.20;;;;;;5089765;28;20036;-52
2021/03/29 02:15:13;;;;;;;13.88;4.95;;;9.80;79.20;;;;;;5089067;28;20032;-53
2021/03/29 02:17:41;;;;;;;11.63;5.18;;;9.70;79.10;;;;;;5089735;28;20524;-53
2021/03/29 02:20:16;;;;;;;14.60;4.65;;;9.70;79.40;;;;;;5089822;28;20048;-52
2021/03/29 02:22:49;;;;;;;12.88;5.18;;;9.70;79.50;;;;;;5090464;28;20111;-52
2021/03/29 02:25:17;;;;;;;12.13;5.18;;;9.70;79.40;;;;;;5090582;28;20044;-54
2021/03/29 02:27:47;;;;;;;12.68;5.55;;;9.70;79.40;;;;;;5090032;28;20067;-52
2021/03/29 02:30:17;;;;;;;12.73;5.10;;;9.70;79.60;;;;;;5090179;28;20110;-51
2021/03/29 02:32:44;;;;;;;9.65;5.03;;;9.70;78.90;;;;;;5089138;28;20163;-51
2021/03/29 02:35:12;;;;;;;13.77;5.03;;;9.70;79.00;;;;;;5090144;28;20039;-53
2021/03/29 02:37:48;;;;;;;10.75;5.43;;;9.70;79.20;;;;;;5089177;28;20089;-51
2021/03/29 02:40:16;;;;;;;15.27;6.03;;;9.80;79.00;;;;;;5090270;28;20044;-53
2021/03/29 02:42:44;;;;;;;13.77;5.40;;;9.80;79.00;;;;;;5088729;28;20433;-53
2021/03/29 02:45:12;;;;;;;9.80;5.10;;;9.80;79.20;;;;;;5089232;28;20052;-53
2021/03/29 02:47:45;;;;;;;13.73;5.70;;;9.70;79.20;;;;;;5089906;28;20063;-50
2021/03/29 02:50:17;;;;;;;9.18;5.22;;;9.70;79.20;;;;;;5090348;28;20039;-50
2021/03/29 02:52:50;;;;;;;12.40;5.30;;;9.70;79.40;;;;;;5090202;28;20036;-53
2021/03/29 02:55:18;;;;;;;17.13;6.93;;;9.70;79.60;;;;;;5088962;28;20123;-51
2021/03/29 02:57:45;;;;;;;13.07;5.82;;;9.70;79.70;;;;;;5089840;28;20484;-52
2021/03/29 03:00:14;;;;;;;17.63;6.53;;;9.70;79.70;;;;;;5090614;28;20032;-52
2021/03/29 03:02:42;;;;;;;14.98;5.63;;;9.70;79.40;;;;;;5091026;28;20093;-50
2021/03/29 03:05:09;;;;;;;16.70;6.78;;;9.80;79.40;;;;;;5091224;28;20040;-54
2021/03/29 03:07:36;;;;;;;17.08;6.40;;;9.80;79.30;;;;;;5089826;28;20060;-54
2021/03/29 03:10:07;;;;;;;13.30;6.32;;;9.80;79.40;;;;;;5089920;28;20044;-53
2021/03/29 03:12:33;;;;;;;10.15;5.63;;;9.80;79.50;;;;;;5091107;28;20036;-52
2021/03/29 03:14:59;;;;;;;14.73;5.65;;;9.80;79.10;;;;;;5090785;28;20036;-52
2021/03/29 03:17:25;;;;;;;15.38;5.63;;;9.90;79.10;;;;;;5084364;28;20089;-53
2021/03/29 03:19:52;;;;;;;12.27;5.50;;;9.90;78.80;;;;;;5090363;28;20067;-53
2021/03/29 03:22:17;;;;;;;11.43;6.30;;;9.90;78.50;;;;;;5089720;28;20071;-53
2021/03/29 03:24:43;;;;;;;14.65;6.65;;;10.00;78.40;;;;;;5094082;28;20081;-54
2021/03/29 03:27:10;;;;;;;16.73;5.97;;;10.00;78.40;;;;;;5093216;28;20036;-54
2021/03/29 03:29:42;;;;;;;12.85;5.50;;;10.00;78.20;;;;;;5094248;28;20117;-54
2021/03/29 03:32:27;;;;;;;12.00;6.20;;;10.00;78.00;;;;;;5094551;28;20042;-51
2021/03/29 03:34:53;;;;;;;18.48;6.30;;;10.00;78.10;;;;;;5090225;28;20039;-53
2021/03/29 03:37:20;;;;;;;15.80;6.05;;;10.00;78.00;;;;;;5093096;28;20073;-54
2021/03/29 03:39:47;;;;;;;12.63;5.72;;;10.00;77.60;;;;;;5092658;28;20063;-53
2021/03/29 03:42:15;;;;;;;11.55;5.60;;;10.10;77.40;;;;;;5093482;28;20036;-54
2021/03/29 03:44:42;;;;;;;15.82;5.90;;;10.10;77.70;;;;;;5093871;28;20144;-54
2021/03/29 03:47:10;;;;;;;11.75;5.68;;;10.00;77.70;;;;;;5093830;28;20047;-53
2021/03/29 03:49:39;;;;;;;14.27;6.03;;;10.00;78.00;;;;;;5092445;28;20032;-51
2021/03/29 03:52:07;;;;;;;13.55;5.72;;;9.90;77.80;;;;;;5094058;28;20052;-51
2021/03/29 03:54:33;;;;;;;14.05;6.38;;;9.90;77.80;;;;;;5093813;28;20040;-53
2021/03/29 03:56:59;;;;;;;15.15;6.60;;;9.90;77.90;;;;;;5093230;28;20527;-52
2021/03/29 03:59:25;;;;;;;18.10;6.78;;;9.90;78.00;;;;;;5093877;28;20067;-54
2021/03/29 04:02:04;;;;;;;15.63;5.97;;;9.90;78.00;;;;;;5094413;28;20043;-52
2021/03/29 04:04:30;;;;;;;16.90;6.18;;;9.80;78.40;;;;;;5093570;28;20040;-51
2021/03/29 04:06:57;;;;;;;14.68;6.93;;;9.80;78.50;;;;;;5092927;28;20078;-52
2021/03/29 04:09:51;;;;;;;16.25;6.53;;;9.80;78.40;;;;;;5093563;28;20060;-53
2021/03/29 04:12:11;;;;;;;11.18;5.50;;;9.80;78.80;;;;;;5089692;28;20055;-53
2021/03/29 04:14:38;;;;;;;15.63;6.53;;;9.80;78.90;;;;;;5092692;28;20101;-51
2021/03/29 04:17:06;;;;;;;14.35;6.28;;;9.80;78.80;;;;;;5092892;28;20032;-52
2021/03/29 04:19:32;;;;;;;14.88;6.78;;;9.80;78.90;;;;;;5093436;28;20075;-53
2021/03/29 04:21:58;;;;;;;13.52;6.10;;;9.80;79.00;;;;;;5092995;28;20078;-54
2021/03/29 04:24:24;;;;;;;14.57;7.13;;;9.80;79.10;;;;;;5093407;28;20500;-53
2021/03/29 04:26:49;;;;;;;14.95;6.80;;;9.70;79.20;;;;;;5092943;28;20051;-52
2021/03/29 04:29:15;;;;;;;14.35;6.30;;;9.70;79.80;;;;;;5093858;28;20508;-53
2021/03/29 04:31:41;;;;;;;14.18;6.20;;;9.80;79.10;;;;;;5093350;28;20040;-51
2021/03/29 04:34:07;;;;;;;17.70;6.75;;;9.70;79.30;;;;;;5091446;28;20182;-53
2021/03/29 04:36:34;;;;;;;16.10;7.10;;;9.70;79.30;;;;;;5088051;28;20102;-55
2021/03/29 04:39:00;;;;;;;17.25;6.93;;;9.70;79.40;;;;;;5080519;28;20524;-53
2021/03/29 04:41:26;;;;;;;17.38;6.65;;;9.70;79.40;;;;;;5091529;28;20085;-55
2021/03/29 04:43:52;;;;;;;15.07;6.70;;;9.70;79.40;;;;;;5090884;28;20437;-53
2021/03/29 04:46:17;;;;;;;16.08;6.63;;;9.70;80.30;;;;;;5091869;28;20063;-54
2021/03/29 04:48:43;;;;;;;14.07;6.68;;;9.70;80.60;;;;;;5089949;28;20039;-52
2021/03/29 04:51:09;;;;;;;14.30;6.20;;;9.60;81.30;;;;;;5091812;28;20044;-52
2021/03/29 04:53:34;;;;;;;13.38;6.40;;;9.70;81.20;;;;;;5089598;28;20040;-52
2021/03/29 04:56:01;;;;;;;13.80;6.07;;;9.70;81.20;;;;;;5088950;28;20027;-53
2021/03/29 04:58:27;;;;;;;16.30;6.57;;;9.70;80.80;;;;;;5089223;28;20036;-52
2021/03/29 05:00:52;;;;;;;18.52;6.05;;;9.70;81.10;;;;;;5091463;28;20036;-51
2021/03/29 05:03:18;;;;;;;13.55;6.95;;;9.70;81.50;;;;;;5089153;28;20048;-54
2021/03/29 05:05:44;;;;;;;14.63;6.25;;;9.60;81.40;;;;;;5090522;28;20138;-54
2021/03/29 05:08:10;;;;;;;15.63;6.55;;;9.60;81.50;;;;;;5091392;28;20043;-52
2021/03/29 05:10:39;;;;;;;19.08;6.07;;;9.60;81.60;;;;;;5091091;28;20046;-50
2021/03/29 05:13:05;;;;;;;16.48;6.20;;;9.60;81.20;;;;;;5089788;28;20668;-55
2021/03/29 05:15:31;;;;;;;16.33;6.63;;;9.60;81.80;;;;;;5089326;28;20717;-54
2021/03/29 05:17:57;;;;;;;15.48;6.22;;;9.60;82.10;;;;;;5089701;28;20040;-55
2021/03/29 05:20:23;;;;;;;17.00;6.95;;;9.60;81.90;;;;;;5090764;28;20111;-54
2021/03/29 05:22:49;;;;;;;14.90;6.90;;;9.60;81.90;;;;;;5091233;28;20078;-49
2021/03/29 05:25:15;;;;;;;12.20;5.88;;;9.60;82.10;;;;;;5090948;28;20465;-53
2021/03/29 05:27:41;;;;;;;13.35;5.95;;;9.50;81.70;;;;;;5090196;28;20036;-51
2021/03/29 05:30:08;;;;;;;16.52;6.53;;;9.50;82.60;;;;;;5090280;28;20480;-49
2021/03/29 05:32:33;;;;;;;17.35;6.30;;;9.60;82.30;;;;;;5085222;28;20047;-51
2021/03/29 05:35:01;;;;;;;10.18;5.82;;;9.50;82.20;;;;;;5085405;28;20411;-50
2021/03/29 05:37:28;;;;;;;16.52;5.82;;;9.50;82.70;;;;;;5085962;28;20389;-53
2021/03/29 05:39:56;;;;;;;16.65;6.00;;;9.50;82.20;;;;;;5089238;28;20040;-49
2021/03/29 05:42:23;;;;;;;15.38;6.25;;;9.60;82.30;;;;;;5089061;28;20769;-49
2021/03/29 05:44:52;;;;;;;16.27;5.80;;;9.50;81.80;;;;;;5088663;28;20036;-49
2021/03/29 05:47:18;;;;;;;12.68;5.50;;;9.60;81.20;;;;;;5088402;28;20036;-52
2021/03/29 05:49:43;;;;;;;15.55;6.03;;;9.60;81.80;;;;;;5085967;28;20046;-51
2021/03/29 05:52:10;;;;;;;14.65;5.45;;;9.60;82.00;;;;;;5087261;28;20048;-48
2021/03/29 05:54:39;;;;;;;15.90;5.50;;;9.60;82.00;;;;;;5078859;28;20071;-52
2021/03/29 05:57:05;;;;;;;14.30;5.38;;;9.50;82.00;;;;;;5089440;28;20032;-53
2021/03/29 05:59:42;;;;;;;12.13;5.22;;;9.60;82.20;;;;;;5088575;28;20035;-53
2021/03/29 06:02:29;;;;;;;10.40;4.88;;;9.60;82.60;;;;;;5089138;28;20036;-49
2021/03/29 06:04:55;;;;;;;13.40;5.22;;;9.60;82.10;;;;;;5085222;28;20036;-53
2021/03/29 06:07:29;;;;;;;12.07;5.03;;;9.60;82.20;;;;;;5088816;28;20042;-52
2021/03/29 06:10:06;;;;;;;15.20;5.53;;;9.60;82.20;;;;;;5089415;28;20035;-52
2021/03/29 06:12:44;;;;;;;12.18;5.45;;;9.70;82.30;;;;;;5088461;28;20050;-54
2021/03/29 06:15:10;;;;;;;13.77;5.40;;;9.70;82.10;;;;;;5087298;28;20056;-53
2021/03/29 06:17:36;;;;;;;12.38;4.93;;;9.80;82.30;;;;;;5089833;28;20380;-54
2021/03/29 06:20:04;;;;;;;12.00;5.03;;;9.80;82.70;;;;;;5092330;28;20571;-52
2021/03/29 06:22:36;;;;;;;14.63;5.28;;;9.90;81.80;;;;;;5087836;28;20062;-52
2021/03/29 06:25:16;;;;;;;11.23;5.30;;;10.00;81.50;;;;;;5087809;28;20089;-54
2021/03/29 06:27:58;;;;;;;10.70;5.05;;;10.10;81.10;;;;;;5083770;28;20048;-50
2021/03/29 06:30:37;;;;;;;16.27;4.93;;;10.40;79.50;;;;;;5089986;28;20040;-55
2021/03/29 06:33:13;;;;;;;14.98;4.75;;;10.40;80.00;;;;;;5089627;28;20059;-53
2021/03/29 06:35:49;;;;;;;14.40;4.88;;;10.50;80.10;;;;;;5090743;28;20071;-54
2021/03/29 06:38:14;;;;;;;12.70;4.85;;;10.60;79.60;;;;;;5089688;28;20518;-52
2021/03/29 06:40:56;;;;;;;10.50;4.55;;;10.70;79.60;;;;;;5089611;28;20044;-52
2021/03/29 06:43:35;;;;;;;13.60;5.55;;;10.80;79.40;;;;;;5090189;28;21344;-53
2021/03/29 06:46:07;;;;;;;13.07;5.13;;;10.80;78.90;;;;;;5104597;28;20044;-54
2021/03/29 06:48:38;;;;;;;12.77;4.65;;;10.70;79.10;;;;;;5071317;28;20385;-53
2021/03/29 06:51:19;;;;;;;15.85;4.90;;;10.80;78.80;;;;;;5092079;28;20147;-52
2021/03/29 06:53:58;;;;;;;15.50;4.43;;;10.70;79.40;;;;;;5090766;28;20052;-54
2021/03/29 06:56:29;;;;;;;13.98;4.65;;;10.70;79.60;;;;;;5087521;28;20139;-54
2021/03/29 06:59:05;;;;;;;13.93;5.03;;;10.70;79.50;;;;;;5102659;28;20039;-54
2021/03/29 07:01:34;;;;;;;13.27;4.13;;;10.70;80.00;;;;;;5095225;28;20650;-52
2021/03/29 07:04:01;;;;;;;11.65;4.45;;;10.80;79.30;;;;;;5096778;28;20039;-54
2021/03/29 07:06:29;;;;;;;13.88;4.47;;;10.80;79.20;;;;;;5097193;28;20044;-52
2021/03/29 07:09:07;;;;;;;15.63;4.78;;;10.80;79.50;;;;;;5095753;28;20036;-53
2021/03/29 07:11:35;;;;;;;9.23;4.10;;;10.90;79.70;;;;;;5097274;28;20044;-53
2021/03/29 07:14:02;;;;;;;14.02;5.28;;;10.90;79.50;;;;;;5077496;28;20093;-53
2021/03/29 07:16:29;;;;;;;13.07;4.13;;;11.00;78.90;;;;;;5092610;28;20389;-52
2021/03/29 07:18:57;;;;;;;11.10;4.70;;;11.00;79.10;;;;;;5095981;28;20039;-54
2021/03/29 07:21:25;;;;;;;11.88;4.57;;;11.00;79.10;;;;;;5093293;28;20085;-54
2021/03/29 07:23:52;;;;;;;13.20;4.40;;;11.10;79.40;;;;;;5094108;28;20040;-54
2021/03/29 07:26:27;;;;;;;13.35;5.00;;;11.10;78.60;;;;;;5092966;28;20040;-54
2021/03/29 07:28:55;;;;;;;12.55;4.10;;;11.10;78.30;;;;;;5093062;28;20504;-54
2021/03/29 07:31:38;;;;;;;14.98;4.70;;;11.20;78.40;;;;;;5093325;28;20074;-52
2021/03/29 07:34:06;;;;;;;20.58;5.00;;;11.20;78.30;;;;;;5091889;28;20046;-54
2021/03/29 07:36:42;;;;;;;13.60;4.78;;;11.30;78.70;;;;;;5092114;28;20048;-53
2021/03/29 07:39:09;;;;;;;15.40;4.22;;;11.40;78.50;;;;;;5092376;28;20036;-54
2021/03/29 07:41:42;;;;;;;16.75;5.10;;;11.40;78.50;;;;;;5093511;28;20040;-55
2021/03/29 07:44:09;;;;;;;14.90;5.00;;;11.50;78.10;;;;;;5094782;28;20075;-54
2021/03/29 07:46:40;;;;;;;9.43;4.45;;;11.60;77.80;;;;;;5093232;28;20066;-52
2021/03/29 07:49:46;;;;;;;15.18;4.57;;;11.70;77.60;;;;;;5093589;28;20044;-54
2021/03/29 07:52:26;;;;;;;11.82;4.50;;;11.70;77.30;;;;;;5093649;28;20062;-55
2021/03/29 07:54:53;;;;;;;13.73;4.63;;;11.80;77.60;;;;;;5086022;28;20050;-53
2021/03/29 07:57:38;;;;;;;11.32;5.00;;;11.90;77.00;;;;;;5092257;28;20028;-52
2021/03/29 08:00:04;;;;;;;13.20;4.88;;;12.00;76.80;;;;;;5090769;28;20047;-54
2021/03/29 08:02:33;;;;;;;14.88;4.90;;;12.10;76.40;;;;;;5092279;28;20043;-53
2021/03/29 08:05:08;;;;;;;14.90;4.53;;;12.10;77.30;;;;;;5092096;28;20094;-52
2021/03/29 08:07:35;;;;;;;10.75;4.20;;;12.20;76.80;;;;;;5091518;28;20039;-54
2021/03/29 08:10:01;;;;;;;10.18;4.20;;;12.30;76.40;;;;;;5091554;28;20032;-55
2021/03/29 08:12:26;;;;;;;13.48;4.68;;;12.30;76.30;;;;;;5093268;28;20044;-54
2021/03/29 08:14:54;;;;;;;11.43;5.00;;;12.40;76.40;;;;;;5093034;28;20044;-53
2021/03/29 08:17:50;;;;;;;14.57;4.50;;;12.40;76.30;;;;;;5093171;28;20093;-51
2021/03/29 08:20:15;;;;;;;16.65;5.15;;;12.50;75.20;;;;;;5089463;28;20054;-54
2021/03/29 08:22:42;;;;;;;14.32;4.60;;;12.50;75.90;;;;;;5092033;28;20048;-53
2021/03/29 08:25:27;;;;;;;12.27;4.68;;;12.60;75.80;;;;;;5093296;28;20040;-52
2021/03/29 08:27:54;;;;;;;13.40;5.25;;;12.70;73.80;;;;;;5094414;28;20039;-54
2021/03/29 08:30:21;;;;;;;21.05;5.30;;;12.70;74.50;;;;;;5098826;28;20040;-51
2021/03/29 08:32:46;;;;;;;12.38;4.78;;;12.70;75.70;;;;;;5092450;28;20044;-54
2021/03/29 08:35:14;;;;;;;15.10;4.85;;;12.70;75.20;;;;;;5093046;28;20051;-53
2021/03/29 08:37:43;;;;;;;11.88;4.55;;;12.90;75.80;;;;;;5092154;28;20093;-54
2021/03/29 08:40:26;;;;;;;13.95;4.60;;;12.90;74.60;;;;;;5091647;28;20043;-53
2021/03/29 08:42:57;;;;;;;13.07;4.32;;;12.90;74.40;;;;;;5090438;28;20048;-54
2021/03/29 08:45:25;;;;;;;12.70;4.45;;;13.00;74.40;;;;;;5088591;28;20064;-55
2021/03/29 08:47:56;;;;;;;14.80;4.82;;;13.10;74.90;;;;;;5086991;28;20044;-51
2021/03/29 08:50:47;;;;;;;17.05;4.82;;;13.10;75.00;;;;;;5091772;28;20040;-54
2021/03/29 08:53:14;;;;;;;17.40;4.95;;;13.20;74.20;;;;;;5089925;28;20064;-51
2021/03/29 08:55:41;;;;;;;11.45;4.38;;;13.20;74.80;;;;;;5090774;28;20032;-51
2021/03/29 08:58:09;;;;;;;15.55;4.75;;;13.30;73.70;;;;;;5090900;28;20823;-55
2021/03/29 09:00:40;;;;;;;14.13;4.85;;;13.30;74.30;;;;;;5091689;28;20515;-53
2021/03/29 09:03:15;;;;;;;13.43;4.43;;;13.40;73.50;;;;;;5091819;28;20044;-52
2021/03/29 09:05:41;;;;;;;10.77;4.53;;;13.40;73.00;;;;;;5093179;28;20039;-52
2021/03/29 09:08:10;;;;;;;16.00;4.80;;;13.50;73.40;;;;;;5090572;28;20078;-55
2021/03/29 09:10:36;;;;;;;12.10;4.63;;;13.50;73.40;;;;;;5090923;28;20079;-55
2021/03/29 09:13:09;;;;;;;15.50;5.15;;;13.50;73.10;;;;;;5092887;28;20064;-55
2021/03/29 09:15:37;;;;;;;12.38;4.28;;;13.60;73.10;;;;;;5089775;28;20039;-55
2021/03/29 09:18:10;;;;;;;16.02;5.93;;;13.60;73.70;;;;;;5090464;28;20036;-55
2021/03/29 09:20:41;;;;;;;16.35;5.18;;;13.60;73.00;;;;;;5088763;28;20051;-52
2021/03/29 09:23:12;;;;;;;15.35;4.93;;;13.70;73.40;;;;;;5091137;28;20054;-52
2021/03/29 09:25:46;;;;;;;15.65;5.32;;;13.70;73.80;;;;;;5090515;28;20054;-54
2021/03/29 09:31:12;;;;;;;15.27;4.70;;;13.70;73.10;;;;;;5084819;28;20484;-53
2021/03/29 09:33:42;;;;;;;17.17;5.82;;;13.80;72.90;;;;;;5089035;28;20043;-55
2021/03/29 09:36:10;;;;;;;16.50;5.28;;;13.90;72.60;;;;;;5091225;28;20093;-55
2021/03/29 09:38:42;;;;;;;13.13;5.05;;;13.80;72.80;;;;;;5090731;28;20046;-55
2021/03/29 09:41:18;;;;;;;14.70;5.07;;;13.90;73.20;;;;;;5090438;28;20040;-52
2021/03/29 09:43:45;;;;;;;16.90;5.53;;;14.00;73.40;;;;;;5088331;28;20074;-53
2021/03/29 09:46:14;;;;;;;12.75;5.35;;;14.00;72.70;;;;;;5090800;28;20042;-51
2021/03/29 09:48:42;;;;;;;19.98;5.97;;;14.10;72.80;;;;;;5091084;28;20130;-54
2021/03/29 09:51:21;;;;;;;18.00;4.85;;;14.10;72.60;;;;;;5094755;28;20101;-54
2021/03/29 09:53:47;;;;;;;13.20;5.15;;;14.10;73.20;;;;;;5091124;28;20078;-54
2021/03/29 09:56:35;;;;;;;17.10;5.70;;;14.20;72.40;;;;;;5088030;28;20044;-55
2021/03/29 09:59:01;;;;;;;14.23;5.85;;;14.20;73.10;;;;;;5088738;28;20036;-54
2021/03/29 10:01:28;;;;;;;15.18;5.20;;;14.30;72.60;;;;;;5091277;28;20107;-54
2021/03/29 10:04:01;;;;;;;16.30;5.68;;;14.30;72.20;;;;;;5089622;28;20036;-53
2021/03/29 10:06:29;;;;;;;13.55;5.40;;;14.40;71.60;;;;;;5089528;28;20032;-55
2021/03/29 10:09:06;;;;;;;13.88;5.43;;;14.30;71.50;;;;;;5090235;28;20048;-53
2021/03/29 10:11:47;;;;;;;16.80;5.47;;;14.40;71.70;;;;;;5090204;28;20032;-55
2021/03/29 10:14:16;;;;;;;14.50;5.45;;;14.40;72.60;;;;;;5085690;28;20097;-52
2021/03/29 10:16:48;;;;;;;14.20;6.03;;;14.50;72.40;;;;;;5089720;28;20058;-55
2021/03/29 10:19:19;;;;;;;13.63;5.43;;;14.50;71.60;;;;;;5083165;28;20426;-54
2021/03/29 10:22:15;;;;;;;14.57;5.40;;;14.60;72.30;;;;;;5090555;28;20081;-52
2021/03/29 10:25:04;;;;;;;15.77;5.88;;;14.70;72.90;;;;;;5084207;28;20040;-53
2021/03/29 10:27:46;;;;;;;13.10;5.30;;;14.80;72.10;;;;;;5082833;28;20436;-51
2021/03/29 10:30:22;;;;;;;;;;;14.90;71.60;;;;;;5072409;28;20044;-52
2021/03/29 10:32:52;;;;;;;16.30;5.65;;;15.00;71.80;;;;;;5089673;28;19986;-54
2021/03/29 10:35:20;;;;;;;14.95;5.85;;;15.00;71.20;;;;;;5089266;28;20507;-51
2021/03/29 10:37:46;;;;;;;18.98;5.78;;;15.00;69.80;;;;;;5087159;28;20506;-51
2021/03/29 10:40:14;;;;;;;16.63;6.03;;;15.00;70.60;;;;;;5087870;28;20128;-52
2021/03/29 10:42:42;;;;;;;16.05;6.10;;;15.00;71.20;;;;;;5088729;28;21179;-51
2021/03/29 10:45:10;;;;;;;17.42;6.43;;;15.00;71.40;;;;;;5089556;28;20567;-54
2021/03/29 10:47:36;;;;;;;12.75;5.70;;;15.10;71.80;;;;;;5088247;28;20039;-52
2021/03/29 10:50:04;;;;;;;16.48;5.78;;;15.10;72.10;;;;;;5089116;28;20134;-53
2021/03/29 10:52:30;;;;;;;14.13;5.88;;;15.20;70.90;;;;;;5089355;28;20498;-51
2021/03/29 10:54:56;;;;;;;14.73;6.53;;;15.30;71.00;;;;;;5087289;28;20139;-54
2021/03/29 10:57:22;;;;;;;16.25;5.43;;;15.30;71.40;;;;;;5088728;28;20083;-54
2021/03/29 10:59:47;;;;;;;13.15;5.72;;;15.40;70.50;;;;;;5089871;28;20076;-54
2021/03/29 11:02:14;;;;;;;16.17;6.05;;;15.50;71.00;;;;;;5089533;28;20097;-52
2021/03/29 11:04:40;;;;;;;13.82;5.80;;;15.60;70.60;;;;;;5089471;28;20047;-53
2021/03/29 11:07:06;;;;;;;18.60;6.13;;;15.60;69.60;;;;;;5088851;28;20036;-54
2021/03/29 11:09:32;;;;;;;20.40;6.45;;;15.60;69.30;;;;;;5088557;28;20403;-53
2021/03/29 11:11:58;;;;;;;16.95;5.50;;;15.60;69.80;;;;;;5087357;28;20051;-53
2021/03/29 11:14:24;;;;;;;12.25;5.32;;;15.60;68.90;;;;;;5089363;28;20051;-53
2021/03/29 11:16:53;;;;;;;12.60;5.80;;;15.60;70.20;;;;;;5087622;28;20036;-54
2021/03/29 11:19:19;;;;;;;16.20;5.88;;;15.70;70.20;;;;;;5089580;28;20036;-53
2021/03/29 11:21:46;;;;;;;15.70;5.53;;;15.80;70.10;;;;;;5084431;28;20036;-55
2021/03/29 11:24:12;;;;;;;19.58;6.22;;;15.90;69.50;;;;;;5083169;28;20056;-55
2021/03/29 11:26:38;;;;;;;15.70;6.05;;;15.90;69.50;;;;;;5083866;28;20044;-52
2021/03/29 11:29:04;;;;;;;17.77;6.50;;;16.00;69.00;;;;;;5087544;28;20048;-55
2021/03/29 11:31:30;;;;;;;13.10;5.45;;;16.00;68.10;;;;;;5089585;28;20048;-52
2021/03/29 11:33:56;;;;;;;13.20;5.68;;;16.10;69.40;;;;;;5088276;28;20428;-52
2021/03/29 11:36:21;;;;;;;15.63;6.38;;;16.10;69.10;;;;;;5087966;28;20124;-50
2021/03/29 11:38:48;;;;;;;14.65;5.53;;;16.20;68.60;;;;;;5086169;28;20063;-52
2021/03/29 11:41:16;;;;;;;14.57;5.75;;;16.30;68.40;;;;;;5088922;28;20056;-51
2021/03/29 11:43:42;;;;;;;12.48;5.70;;;16.30;67.20;;;;;;5083607;28;20040;-51
2021/03/29 11:46:08;;;;;;;12.82;5.50;;;16.40;66.00;;;;;;5089638;28;20480;-51
2021/03/29 11:48:33;;;;;;;13.88;5.65;;;16.30;66.50;;;;;;5092297;28;20083;-51
2021/03/29 11:50:59;;;;;;;13.02;5.88;;;16.20;65.20;;;;;;5092267;28;20047;-51
2021/03/29 11:53:25;;;;;;;18.30;6.65;;;16.10;65.90;;;;;;5090922;28;20084;-51
2021/03/29 11:55:52;;;;;;;15.30;6.85;;;16.10;67.70;;;;;;5091832;28;20458;-51
2021/03/29 11:58:18;;;;;;;12.95;6.20;;;16.20;68.20;;;;;;5091057;28;20079;-51
2021/03/29 12:03:29;;;;;;;13.13;5.78;;;16.10;67.30;;;;;;5092657;28;20456;-53
2021/03/29 12:06:00;;;;;;;14.27;5.78;;;16.20;67.00;;;;;;5092172;28;20044;-51
2021/03/29 12:08:38;;;;;;;16.63;6.07;;;16.20;66.80;;;;;;5091985;28;20128;-51
2021/03/29 12:13:50;;;;;;;14.48;5.25;;;16.20;67.40;;;;;;5090572;28;20047;-54
2021/03/29 12:16:16;;;;;;;15.00;5.97;;;16.30;66.60;;;;;;5091870;28;20577;-51
2021/03/29 12:21:29;;;;;;;17.08;6.07;;;16.40;66.90;;;;;;5092629;28;20527;-52
2021/03/29 12:23:59;;;;;;;13.82;6.07;;;16.40;67.80;;;;;;5092402;28;20040;-51
2021/03/29 12:26:27;;;;;;;16.15;6.45;;;16.60;67.40;;;;;;5091926;28;20043;-51
2021/03/29 12:28:54;;;;;;;12.30;5.32;;;16.60;66.60;;;;;;5092593;28;20120;-52
2021/03/29 12:31:21;;;;;;;11.55;5.45;;;16.60;66.50;;;;;;5090749;28;20407;-51
2021/03/29 12:33:49;;;;;;;12.63;5.38;;;16.70;66.10;;;;;;5092791;28;20101;-53
2021/03/29 12:36:17;;;;;;;14.13;5.00;;;16.70;66.00;;;;;;5091918;28;20127;-54
2021/03/29 12:38:54;;;;;;;12.13;5.13;;;16.80;66.30;;;;;;5091520;28;20082;-51
2021/03/29 12:41:22;;;;;;;13.13;5.68;;;16.90;65.90;;;;;;5085452;28;20079;-51
2021/03/29 12:43:57;;;;;;;10.43;5.13;;;16.90;65.50;;;;;;5095468;28;20082;-52
2021/03/29 12:46:23;;;;;;;15.07;5.50;;;17.00;65.30;;;;;;5091034;28;20040;-55
2021/03/29 12:48:51;;;;;;;13.63;5.63;;;17.00;66.00;;;;;;5091575;28;20111;-54
2021/03/29 12:51:16;;;;;;;14.32;5.15;;;17.10;65.10;;;;;;5089551;28;20040;-54
2021/03/29 12:53:46;;;;;;;12.95;5.47;;;17.10;65.70;;;;;;5091701;28;20039;-51
2021/03/29 12:56:12;;;;;;;13.57;5.25;;;17.30;65.90;;;;;;5090638;28;20058;-52
2021/03/29 12:58:39;;;;;;;19.60;4.55;;;17.40;65.20;;;;;;5090560;28;20115;-53
2021/03/29 13:01:09;;;;;;;12.48;4.90;;;17.40;63.90;;;;;;5090697;28;20488;-54
2021/03/29 13:03:45;;;;;;;12.13;4.50;;;17.50;63.70;;;;;;5091114;28;20063;-54